createdAt,value
2022-07-31T00:02:29.752Z,5.17
2022-07-31T00:05:01.308Z,4.45
2022-07-31T00:07:33.213Z,2.90
2022-07-31T00:10:05.686Z,4.65
2022-07-31T00:12:37.327Z,3.12
2022-07-31T00:15:14.337Z,4.03
2022-07-31T00:17:46.429Z,2.83
2022-07-31T00:20:19.445Z,4.00
2022-07-31T00:22:51.088Z,4.40
2022-07-31T00:25:22.866Z,4.83
2022-07-31T00:27:54.770Z,5.47
2022-07-31T00:30:26.611Z,3.58
2022-07-31T00:32:58.331Z,2.72
2022-07-31T00:35:31.468Z,4.30
2022-07-31T00:40:36.572Z,2.95
2022-07-31T00:43:08.024Z,2.60
2022-07-31T00:45:40.745Z,3.15
2022-07-31T00:48:14.318Z,3.00
2022-07-31T00:50:46.127Z,4.42
2022-07-31T00:53:18.321Z,4.35
2022-07-31T00:55:51.349Z,3.52
2022-07-31T00:58:23.768Z,2.92
2022-07-31T01:00:55.886Z,3.15
2022-07-31T01:03:27.696Z,3.20
2022-07-31T01:05:59.710Z,5.12
2022-07-31T01:08:32.150Z,4.85
2022-07-31T01:11:26.429Z,6.10
2022-07-31T01:14:03.184Z,3.77
2022-07-31T01:16:39.239Z,4.03
2022-07-31T01:19:22.795Z,4.33
2022-07-31T01:22:01.791Z,3.95
2022-07-31T01:24:55.217Z,4.00
2022-07-31T01:28:03.187Z,3.65
2022-07-31T01:30:43.939Z,4.33
2022-07-31T01:33:18.081Z,3.62
2022-07-31T01:35:55.669Z,3.90
2022-07-31T01:38:31.789Z,3.55
2022-07-31T01:41:06.592Z,4.45
2022-07-31T01:43:44.026Z,4.08
2022-07-31T01:46:18.311Z,3.40
2022-07-31T01:48:52.188Z,3.70
2022-07-31T01:51:25.394Z,3.65
2022-07-31T01:53:58.799Z,3.70
2022-07-31T01:56:34.405Z,3.52
2022-07-31T01:59:18.721Z,3.47
2022-07-31T02:01:41.917Z,2.50
2022-07-31T02:04:15.762Z,2.62
2022-07-31T02:06:49.707Z,2.65
2022-07-31T02:09:24.234Z,3.12
2022-07-31T02:11:56.750Z,5.37
2022-07-31T02:14:30.762Z,3.92
2022-07-31T02:17:03.599Z,4.60
2022-07-31T02:19:36.346Z,3.12
2022-07-31T02:22:08.811Z,4.55
2022-07-31T02:24:40.691Z,3.95
2022-07-31T02:27:54.041Z,3.80
2022-07-31T02:29:48.851Z,5.12
2022-07-31T02:32:20.675Z,4.45
2022-07-31T02:34:53.918Z,5.53
2022-07-31T02:37:27.413Z,3.47
2022-07-31T02:40:00.751Z,4.50
2022-07-31T02:42:32.625Z,3.45
2022-07-31T02:45:04.619Z,4.03
2022-07-31T02:47:36.730Z,3.75
2022-07-31T02:50:09.339Z,3.92
2022-07-31T02:52:41.328Z,3.12
2022-07-31T02:55:14.478Z,2.95
2022-07-31T02:57:48.254Z,3.33
2022-07-31T03:00:27.587Z,2.92
2022-07-31T03:02:59.499Z,2.65
2022-07-31T03:05:31.884Z,3.05
2022-07-31T03:08:03.835Z,3.70
2022-07-31T03:10:35.430Z,2.83
2022-07-31T03:13:08.113Z,2.40
2022-07-31T03:15:41.808Z,3.67
2022-07-31T03:18:19.070Z,4.17
2022-07-31T03:20:58.725Z,3.52
2022-07-31T03:23:33.144Z,4.17
2022-07-31T03:26:06.672Z,4.00
2022-07-31T03:28:38.384Z,3.17
2022-07-31T03:31:10.864Z,4.00
2022-07-31T03:33:43.209Z,2.77
2022-07-31T03:36:14.857Z,2.80
2022-07-31T03:38:50.377Z,3.15
2022-07-31T03:41:20.055Z,3.17
2022-07-31T03:43:52.280Z,3.58
2022-07-31T03:46:26.114Z,3.20
2022-07-31T03:48:58.185Z,4.10
2022-07-31T03:51:30.230Z,2.60
2022-07-31T03:54:02.256Z,4.17
2022-07-31T03:56:35.182Z,4.03
2022-07-31T03:59:07.206Z,4.53
2022-07-31T04:01:58.212Z,4.03
2022-07-31T04:04:18.241Z,4.33
2022-07-31T04:06:53.783Z,3.12
2022-07-31T04:09:28.473Z,2.45
2022-07-31T04:12:06.253Z,3.30
2022-07-31T04:14:43.768Z,3.95
2022-07-31T04:17:19.676Z,3.55
2022-07-31T04:19:53.587Z,4.72
2022-07-31T04:22:29.712Z,4.30
2022-07-31T04:25:05.523Z,3.22
2022-07-31T04:27:47.912Z,3.60
2022-07-31T04:30:20.604Z,4.35
2022-07-31T04:32:58.746Z,3.35
2022-07-31T04:35:33.200Z,2.85
2022-07-31T04:38:04.890Z,3.55
2022-07-31T04:40:36.597Z,4.03
2022-07-31T04:43:08.891Z,2.58
2022-07-31T04:45:41.959Z,3.10
2022-07-31T04:48:18.431Z,2.98
2022-07-31T04:50:50.015Z,3.08
2022-07-31T04:53:22.280Z,3.05
2022-07-31T04:56:11.626Z,2.70
2022-07-31T04:58:42.989Z,2.75
2022-07-31T05:01:16.373Z,2.47
2022-07-31T05:03:47.809Z,2.70
2022-07-31T05:06:18.936Z,2.35
2022-07-31T05:08:50.420Z,3.40
2022-07-31T05:11:25.570Z,3.80
2022-07-31T05:14:02.348Z,4.22
2022-07-31T05:16:34.759Z,3.62
2022-07-31T05:19:13.659Z,3.33
2022-07-31T05:21:51.407Z,3.52
2022-07-31T05:24:14.495Z,3.40
2022-07-31T05:26:45.908Z,3.77
2022-07-31T05:29:17.786Z,2.47
2022-07-31T05:32:00.224Z,3.22
2022-07-31T05:34:22.534Z,3.22
2022-07-31T05:36:54.422Z,3.58
2022-07-31T05:39:28.646Z,2.80
2022-07-31T05:41:59.816Z,3.40
2022-07-31T05:44:32.620Z,2.80
2022-07-31T05:47:04.224Z,4.33
2022-07-31T05:49:35.845Z,2.42
2022-07-31T05:52:07.687Z,2.58
2022-07-31T05:54:38.959Z,3.55
2022-07-31T05:57:10.374Z,2.33
2022-07-31T05:59:41.691Z,3.10
2022-07-31T06:02:13.058Z,2.67
2022-07-31T06:04:44.387Z,2.75
2022-07-31T06:07:16.030Z,2.58
2022-07-31T06:09:48.855Z,2.33
2022-07-31T06:12:21.942Z,3.83
2022-07-31T06:14:53.577Z,3.60
2022-07-31T06:17:40.255Z,3.02
2022-07-31T06:20:02.187Z,2.42
2022-07-31T06:22:33.682Z,3.10
2022-07-31T06:25:05.237Z,2.77
2022-07-31T06:27:37.505Z,4.40
2022-07-31T06:30:12.144Z,3.17
2022-07-31T06:32:43.718Z,2.85
2022-07-31T06:35:15.685Z,2.10
2022-07-31T06:37:47.018Z,3.27
2022-07-31T06:40:18.784Z,4.53
2022-07-31T06:42:50.513Z,3.08
2022-07-31T06:45:41.896Z,4.15
2022-07-31T06:47:55.918Z,2.85
2022-07-31T06:50:27.536Z,3.00
2022-07-31T06:53:00.446Z,4.12
2022-07-31T06:55:31.800Z,4.40
2022-07-31T06:58:04.323Z,3.65
2022-07-31T07:00:36.395Z,3.42
2022-07-31T07:03:08.103Z,2.50
2022-07-31T07:05:42.798Z,3.08
2022-07-31T07:08:13.071Z,3.12
2022-07-31T07:10:44.703Z,2.77
2022-07-31T07:13:16.581Z,3.05
2022-07-31T07:15:48.380Z,2.77
2022-07-31T07:18:21.809Z,2.77
2022-07-31T07:20:54.051Z,2.08
2022-07-31T07:23:25.904Z,3.30
2022-07-31T07:25:57.353Z,3.55
2022-07-31T07:28:31.186Z,5.53
2022-07-31T07:31:03.192Z,2.58
2022-07-31T07:33:41.533Z,2.83
2022-07-31T07:36:08.615Z,2.55
2022-07-31T07:38:41.936Z,3.85
2022-07-31T07:41:13.797Z,4.08
2022-07-31T07:43:51.551Z,2.83
2022-07-31T07:46:23.591Z,5.15
2022-07-31T07:48:57.771Z,3.10
2022-07-31T07:51:29.678Z,4.37
2022-07-31T07:54:01.794Z,4.03
2022-07-31T07:56:33.358Z,3.37
2022-07-31T07:59:04.797Z,4.15
2022-07-31T08:01:36.841Z,3.17
2022-07-31T08:04:09.495Z,3.90
2022-07-31T08:06:41.518Z,2.70
2022-07-31T08:09:13.126Z,5.08
2022-07-31T08:11:45.380Z,2.98
2022-07-31T08:14:17.694Z,2.58
2022-07-31T08:16:55.197Z,3.55
2022-07-31T08:19:33.112Z,1.90
2022-07-31T08:22:06.503Z,2.75
2022-07-31T08:24:38.422Z,2.70
2022-07-31T08:27:39.556Z,3.37
2022-07-31T08:30:07.251Z,3.77
2022-07-31T08:32:42.358Z,1.98
2022-07-31T08:35:20.331Z,2.80
2022-07-31T08:38:03.573Z,3.33
2022-07-31T08:40:34.928Z,3.80
2022-07-31T08:44:03.175Z,2.50
2022-07-31T08:45:52.842Z,2.67
2022-07-31T08:48:29.419Z,6.53
2022-07-31T08:51:02.308Z,2.98
2022-07-31T08:53:35.853Z,2.75
2022-07-31T08:56:09.848Z,3.45
2022-07-31T08:58:42.205Z,2.05
2022-07-31T09:01:15.039Z,3.40
2022-07-31T09:03:48.858Z,2.17
2022-07-31T09:06:20.376Z,3.35
2022-07-31T09:08:54.825Z,3.85
2022-07-31T09:11:27.103Z,2.33
2022-07-31T09:14:03.583Z,2.47
2022-07-31T09:16:38.604Z,1.85
2022-07-31T09:19:52.328Z,2.20
2022-07-31T09:21:46.820Z,3.70
2022-07-31T09:24:40.802Z,2.65
2022-07-31T09:27:14.121Z,2.27
2022-07-31T09:29:49.738Z,2.20
2022-07-31T09:32:22.522Z,3.00
2022-07-31T09:34:57.429Z,3.47
2022-07-31T09:37:29.451Z,3.02
2022-07-31T09:40:00.876Z,1.52
2022-07-31T09:42:55.663Z,2.30
2022-07-31T09:45:28.093Z,2.60
2022-07-31T09:48:14.340Z,2.77
2022-07-31T09:51:02.255Z,2.80
2022-07-31T09:53:50.307Z,3.08
2022-07-31T09:56:37.486Z,3.67
2022-07-31T09:59:11.813Z,2.72
2022-07-31T10:01:44.502Z,2.67
2022-07-31T10:04:17.467Z,2.02
2022-07-31T10:06:51.969Z,1.98
2022-07-31T10:09:25.672Z,1.47
2022-07-31T10:12:02.446Z,3.25
2022-07-31T10:14:35.944Z,3.27
2022-07-31T10:17:08.264Z,1.70
2022-07-31T10:19:43.706Z,1.57
2022-07-31T10:22:18.585Z,1.75
2022-07-31T10:24:52.699Z,3.15
2022-07-31T10:27:24.471Z,2.17
2022-07-31T10:29:56.125Z,1.77
2022-07-31T10:32:27.827Z,2.12
2022-07-31T10:34:59.815Z,2.95
2022-07-31T10:37:33.746Z,2.25
2022-07-31T10:40:28.015Z,3.58
2022-07-31T10:43:11.165Z,3.02
2022-07-31T10:45:51.923Z,2.35
2022-07-31T10:48:24.202Z,3.65
2022-07-31T10:51:13.813Z,3.00
2022-07-31T10:54:04.893Z,1.80
2022-07-31T10:56:49.133Z,1.60
2022-07-31T10:59:23.335Z,2.72
2022-07-31T11:01:58.657Z,2.47
2022-07-31T11:07:03.164Z,4.70
2022-07-31T11:09:50.494Z,2.72
2022-07-31T11:12:18.797Z,3.00
2022-07-31T11:14:52.105Z,2.22
2022-07-31T11:18:23.520Z,1.60
2022-07-31T11:20:10.178Z,4.50
2022-07-31T11:22:43.533Z,7.70
2022-07-31T11:25:16.377Z,17.62
2022-07-31T11:27:48.179Z,40.75
2022-07-31T11:30:19.899Z,10.58
2022-07-31T11:32:55.279Z,12.30
2022-07-31T11:35:28.373Z,13.18
2022-07-31T11:38:00.821Z,12.23
2022-07-31T11:40:33.143Z,13.65
2022-07-31T11:43:26.933Z,7.70
2022-07-31T11:46:08.728Z,5.85
2022-07-31T11:48:45.576Z,14.98
2022-07-31T11:51:20.258Z,6.42
2022-07-31T11:53:56.756Z,10.93
2022-07-31T11:56:53.151Z,10.63
2022-07-31T11:59:45.199Z,6.08
2022-07-31T12:02:14.621Z,4.87
2022-07-31T12:04:46.186Z,4.53
2022-07-31T12:07:18.379Z,4.37
2022-07-31T12:10:02.327Z,3.15
2022-07-31T12:12:23.958Z,3.00
2022-07-31T12:14:57.158Z,3.37
2022-07-31T12:17:28.949Z,3.05
2022-07-31T12:20:04.023Z,2.15
2022-07-31T12:22:36.045Z,1.35
2022-07-31T12:25:09.613Z,1.85
2022-07-31T12:27:41.505Z,1.45
2022-07-31T12:30:21.134Z,2.58
2022-07-31T12:32:53.438Z,2.05
2022-07-31T12:35:25.143Z,2.37
2022-07-31T12:37:59.039Z,5.72
2022-07-31T12:40:30.963Z,5.40
2022-07-31T12:43:04.050Z,2.65
2022-07-31T12:45:38.676Z,3.58
2022-07-31T12:48:10.049Z,5.67
2022-07-31T12:50:41.654Z,3.47
2022-07-31T12:53:13.546Z,2.02
2022-07-31T12:55:46.437Z,2.40
2022-07-31T12:58:17.639Z,2.80
2022-07-31T13:00:51.956Z,2.58
2022-07-31T13:03:23.456Z,2.60
2022-07-31T13:05:55.754Z,3.35
2022-07-31T13:08:27.286Z,2.15
2022-07-31T13:10:58.677Z,2.67
2022-07-31T13:13:30.430Z,4.33
2022-07-31T13:16:03.707Z,2.27
2022-07-31T13:18:36.187Z,3.08
2022-07-31T13:21:07.964Z,1.65
2022-07-31T13:23:40.595Z,2.83
2022-07-31T13:26:16.547Z,1.57
2022-07-31T13:28:48.290Z,2.08
2022-07-31T13:31:21.396Z,3.20
2022-07-31T13:33:54.323Z,2.02
2022-07-31T13:36:26.032Z,1.65
2022-07-31T13:38:57.763Z,1.72
2022-07-31T13:41:30.798Z,3.75
2022-07-31T13:44:02.851Z,1.95
2022-07-31T13:46:34.091Z,2.77
2022-07-31T13:49:07.526Z,1.82
2022-07-31T13:51:40.755Z,2.22
2022-07-31T13:54:12.332Z,4.12
2022-07-31T13:56:44.064Z,2.42
2022-07-31T13:59:15.841Z,2.65
2022-07-31T14:02:04.203Z,2.00
2022-07-31T14:04:23.037Z,1.72
2022-07-31T14:06:56.569Z,2.37
2022-07-31T14:09:29.545Z,2.22
2022-07-31T14:12:04.531Z,2.00
2022-07-31T14:14:35.603Z,2.57
2022-07-31T14:17:07.393Z,2.83
2022-07-31T14:19:44.262Z,2.45
2022-07-31T14:22:14.189Z,1.70
2022-07-31T14:24:50.989Z,5.90
2022-07-31T14:27:19.414Z,2.62
2022-07-31T14:29:51.201Z,2.20
2022-07-31T14:32:23.657Z,2.77
2022-07-31T14:34:56.402Z,2.27
2022-07-31T14:37:28.204Z,2.60
2022-07-31T14:39:59.787Z,1.98
2022-07-31T14:42:31.343Z,1.95
2022-07-31T14:45:04.583Z,2.65
2022-07-31T14:47:36.910Z,1.87
2022-07-31T14:50:12.922Z,3.15
2022-07-31T14:52:42.670Z,1.20
2022-07-31T14:55:14.201Z,1.37
2022-07-31T14:57:47.063Z,4.42
2022-07-31T15:00:19.089Z,1.77
2022-07-31T15:02:53.516Z,1.62
2022-07-31T15:06:48.658Z,2.92
2022-07-31T15:08:03.599Z,4.45
2022-07-31T15:10:35.094Z,2.75
2022-07-31T15:13:08.886Z,1.72
2022-07-31T15:15:42.779Z,2.33
2022-07-31T15:18:18.746Z,2.60
2022-07-31T15:20:50.514Z,1.80
2022-07-31T15:23:25.905Z,2.62
2022-07-31T15:26:02.060Z,1.30
2022-07-31T15:28:33.592Z,2.35
2022-07-31T15:31:05.532Z,1.22
2022-07-31T15:33:39.599Z,2.62
2022-07-31T15:36:16.034Z,1.77
2022-07-31T15:38:47.239Z,2.20
2022-07-31T15:41:24.637Z,2.90
2022-07-31T15:44:02.159Z,2.05
2022-07-31T15:46:40.072Z,2.75
2022-07-31T15:49:11.819Z,2.50
2022-07-31T15:51:43.454Z,3.05
2022-07-31T15:54:15.298Z,1.52
2022-07-31T15:56:47.627Z,1.80
2022-07-31T15:59:20.568Z,3.02
2022-07-31T16:01:53.010Z,2.62
2022-07-31T16:04:25.222Z,3.60
2022-07-31T16:06:58.992Z,2.02
2022-07-31T16:09:30.434Z,1.92
2022-07-31T16:12:03.538Z,2.30
2022-07-31T16:14:35.307Z,2.10
2022-07-31T16:17:07.377Z,1.47
2022-07-31T16:19:39.094Z,1.45
2022-07-31T16:22:10.605Z,3.02
2022-07-31T16:24:41.998Z,3.83
2022-07-31T16:27:13.418Z,2.72
2022-07-31T16:29:59.052Z,1.87
2022-07-31T16:32:18.947Z,1.67
2022-07-31T16:34:54.042Z,3.55
2022-07-31T16:37:49.941Z,3.10
2022-07-31T16:39:57.465Z,3.08
2022-07-31T16:42:29.249Z,2.70
2022-07-31T16:45:00.725Z,3.02
2022-07-31T16:47:50.990Z,3.10
2022-07-31T16:50:05.244Z,3.70
2022-07-31T16:52:36.784Z,2.25
2022-07-31T16:55:08.751Z,1.60
2022-07-31T16:57:40.487Z,1.62
2022-07-31T17:00:12.759Z,6.00
2022-07-31T17:02:45.889Z,15.80
2022-07-31T17:05:17.527Z,4.95
2022-07-31T17:07:49.191Z,5.95
2022-07-31T17:10:21.990Z,21.60
2022-07-31T17:12:54.872Z,19.20
2022-07-31T17:15:26.239Z,5.08
2022-07-31T17:17:58.092Z,8.98
2022-07-31T17:20:29.755Z,8.95
2022-07-31T17:23:03.423Z,2.00
2022-07-31T17:25:36.536Z,2.33
2022-07-31T17:28:11.057Z,3.55
2022-07-31T17:30:40.890Z,4.62
2022-07-31T17:33:14.316Z,3.42
2022-07-31T17:35:45.744Z,3.85
2022-07-31T17:38:17.365Z,2.08
2022-07-31T17:40:48.786Z,2.83
2022-07-31T17:43:27.794Z,3.42
2022-07-31T17:46:05.837Z,1.87
2022-07-31T17:48:27.715Z,3.98
2022-07-31T17:50:59.752Z,2.83
2022-07-31T17:53:54.758Z,1.32
2022-07-31T17:56:08.200Z,2.60
2022-07-31T17:58:38.759Z,1.98
2022-07-31T18:01:10.350Z,3.10
2022-07-31T18:03:42.651Z,1.98
2022-07-31T18:06:15.977Z,3.35
2022-07-31T18:08:47.387Z,1.85
2022-07-31T18:11:18.793Z,1.65
2022-07-31T18:13:51.904Z,2.37
2022-07-31T18:16:25.280Z,1.87
2022-07-31T18:18:56.977Z,2.08
2022-07-31T18:21:28.949Z,2.27
2022-07-31T18:24:05.017Z,2.67
2022-07-31T18:26:35.329Z,1.52
2022-07-31T18:29:06.745Z,1.70
2022-07-31T18:31:38.395Z,1.80
2022-07-31T18:34:09.883Z,2.33
2022-07-31T18:36:41.231Z,1.75
2022-07-31T18:39:12.632Z,1.75
2022-07-31T18:41:48.647Z,1.75
2022-07-31T18:44:17.271Z,3.30
2022-07-31T18:46:48.595Z,2.77
2022-07-31T18:51:02.346Z,2.77
2022-07-31T18:51:54.413Z,1.55
2022-07-31T18:54:25.708Z,3.08
2022-07-31T18:56:57.231Z,3.20
2022-07-31T18:59:29.354Z,2.92
2022-07-31T19:02:01.011Z,2.62
2022-07-31T19:04:32.745Z,2.50
2022-07-31T19:07:04.373Z,1.92
2022-07-31T19:09:35.698Z,2.55
2022-07-31T19:12:08.801Z,2.10
2022-07-31T19:14:40.772Z,1.77
2022-07-31T19:17:12.656Z,2.65
2022-07-31T19:19:54.588Z,2.98
2022-07-31T19:22:20.840Z,2.05
2022-07-31T19:24:57.497Z,2.50
2022-07-31T19:27:46.953Z,2.60
2022-07-31T19:30:03.633Z,3.30
2022-07-31T19:32:35.645Z,6.85
2022-07-31T19:35:08.329Z,2.87
2022-07-31T19:37:39.640Z,2.92
2022-07-31T19:40:11.983Z,2.17
2022-07-31T19:42:43.795Z,2.08
2022-07-31T19:45:15.462Z,4.80
2022-07-31T19:47:47.317Z,4.20
2022-07-31T19:50:18.904Z,1.90
2022-07-31T19:52:50.285Z,2.80
2022-07-31T19:55:22.026Z,2.40
2022-07-31T19:57:54.187Z,2.80
2022-07-31T20:00:26.425Z,4.20
2022-07-31T20:02:58.165Z,2.17
2022-07-31T20:05:29.864Z,2.02
2022-07-31T20:08:01.629Z,2.17
2022-07-31T20:10:33.096Z,2.60
2022-07-31T20:13:04.831Z,2.50
2022-07-31T20:15:51.596Z,2.75
2022-07-31T20:18:09.806Z,4.67
2022-07-31T20:20:42.814Z,3.92
2022-07-31T20:23:14.145Z,2.72
2022-07-31T20:25:45.794Z,6.03
2022-07-31T20:28:17.372Z,5.90
2022-07-31T20:30:49.079Z,6.15
2022-07-31T20:33:20.815Z,5.53
2022-07-31T20:35:52.405Z,14.68
2022-07-31T20:38:25.657Z,15.23
2022-07-31T20:40:57.254Z,11.80
2022-07-31T20:43:30.802Z,23.02
2022-07-31T20:46:02.348Z,41.18
2022-07-31T20:48:33.800Z,45.15
2022-07-31T20:51:06.330Z,38.20
2022-07-31T20:53:38.047Z,31.57
2022-07-31T20:56:10.007Z,18.73
2022-07-31T20:58:41.961Z,12.33
2022-07-31T21:01:15.521Z,8.20
2022-07-31T21:03:48.199Z,6.35
2022-07-31T21:06:21.249Z,4.33
2022-07-31T21:08:55.770Z,3.98
2022-07-31T21:11:31.361Z,5.63
2022-07-31T21:14:03.334Z,16.90
2022-07-31T21:16:34.779Z,18.25
2022-07-31T21:19:09.781Z,32.83
2022-07-31T21:21:41.673Z,96.35
2022-07-31T21:24:12.957Z,100.18
2022-07-31T21:26:46.324Z,150.93
2022-07-31T21:29:20.171Z,103.62
2022-07-31T21:31:52.028Z,69.27
2022-07-31T21:34:23.502Z,71.07
2022-07-31T21:36:55.062Z,61.37
2022-07-31T21:39:26.878Z,52.48
2022-07-31T21:41:58.732Z,44.03
2022-07-31T21:44:30.444Z,29.27
2022-07-31T21:47:05.114Z,23.60
2022-07-31T21:49:36.816Z,20.10
2022-07-31T21:52:10.020Z,20.75
2022-07-31T21:54:41.196Z,27.42
2022-07-31T21:57:13.162Z,28.55
2022-07-31T21:59:44.842Z,26.25
2022-07-31T22:02:16.382Z,20.12
2022-07-31T22:05:05.782Z,16.77
2022-07-31T22:07:55.301Z,16.50
2022-07-31T22:10:31.624Z,14.83
2022-07-31T22:13:03.494Z,13.53
2022-07-31T22:15:58.630Z,13.40
2022-07-31T22:18:08.859Z,13.30
2022-07-31T22:20:41.245Z,9.70
2022-07-31T22:23:12.817Z,8.83
2022-07-31T22:25:46.716Z,6.58
2022-07-31T22:28:20.992Z,5.17
2022-07-31T22:30:53.048Z,5.20
2022-07-31T22:33:25.292Z,5.85
2022-07-31T22:36:00.176Z,4.75
2022-07-31T22:38:32.636Z,4.30
2022-07-31T22:41:04.149Z,4.72
2022-07-31T22:44:10.074Z,4.85
2022-07-31T22:46:10.992Z,4.35
2022-07-31T22:48:42.416Z,4.22
2022-07-31T22:51:14.758Z,3.60
2022-07-31T22:53:48.987Z,5.67
2022-07-31T22:56:20.496Z,4.75
2022-07-31T22:58:51.920Z,4.58
2022-07-31T23:01:23.402Z,5.70
2022-07-31T23:03:54.622Z,5.67
2022-07-31T23:06:30.626Z,7.78
2022-07-31T23:09:00.119Z,8.40
2022-07-31T23:11:32.730Z,7.65
2022-07-31T23:14:04.256Z,5.60
2022-07-31T23:16:35.528Z,6.20
2022-07-31T23:19:07.514Z,8.83
2022-07-31T23:21:39.031Z,7.53
2022-07-31T23:24:10.841Z,7.35
2022-07-31T23:26:41.967Z,9.25
2022-07-31T23:29:13.599Z,7.37
2022-07-31T23:31:46.630Z,5.65
2022-07-31T23:34:18.062Z,9.10
2022-07-31T23:36:49.427Z,6.37
2022-07-31T23:39:21.969Z,4.50
2022-07-31T23:42:11.103Z,4.00
2022-07-31T23:44:42.723Z,4.12
2022-07-31T23:47:16.160Z,3.20
2022-07-31T23:49:48.047Z,4.08
2022-07-31T23:52:19.649Z,4.87
2022-07-31T23:54:51.052Z,9.28
2022-07-31T23:57:22.429Z,56.58
2022-07-31T23:59:53.990Z,59.50
